createdAt,value
2018-06-04T00:00:14.554Z,47.61
2018-06-04T00:01:14.739Z,49.80
2018-06-04T00:02:14.894Z,48.58
2018-06-04T00:03:15.077Z,44.92
2018-06-04T00:04:15.239Z,49.07
2018-06-04T00:05:15.433Z,52.49
2018-06-04T00:06:15.633Z,52.25
2018-06-04T00:07:15.766Z,63.23
2018-06-04T00:08:15.939Z,46.39
2018-06-04T00:09:16.092Z,47.85
2018-06-04T00:10:16.268Z,55.18
2018-06-04T00:11:16.457Z,50.05
2018-06-04T00:12:16.613Z,44.92
2018-06-04T00:13:16.786Z,61.28
2018-06-04T00:14:16.956Z,44.92
2018-06-04T00:15:17.126Z,45.41
2018-06-04T00:16:17.297Z,48.10
2018-06-04T00:17:17.472Z,47.12
2018-06-04T00:18:17.638Z,50.78
2018-06-04T00:19:17.827Z,56.40
2018-06-04T00:20:17.975Z,45.65
2018-06-04T00:21:18.156Z,48.34
2018-06-04T00:22:18.322Z,61.77
2018-06-04T00:23:18.501Z,44.19
2018-06-04T00:24:18.672Z,51.51
2018-06-04T00:25:18.855Z,46.14
2018-06-04T00:26:19.008Z,48.34
2018-06-04T00:27:19.205Z,56.64
2018-06-04T00:29:19.543Z,52.73
2018-06-04T00:30:19.716Z,44.68
2018-06-04T00:31:19.903Z,50.54
2018-06-04T00:32:20.139Z,47.36
2018-06-04T00:33:20.258Z,48.58
2018-06-04T00:34:20.441Z,46.88
2018-06-04T00:35:20.617Z,45.65
2018-06-04T00:36:20.810Z,61.28
2018-06-04T00:37:20.974Z,45.17
2018-06-04T00:38:21.153Z,44.92
2018-06-04T00:39:21.327Z,46.63
2018-06-04T00:40:21.520Z,45.17
2018-06-04T00:41:21.704Z,51.51
2018-06-04T00:42:21.884Z,46.14
2018-06-04T00:43:22.062Z,45.41
2018-06-04T00:44:22.241Z,48.83
2018-06-04T00:45:22.419Z,52.00
2018-06-04T00:46:22.600Z,51.76
2018-06-04T00:47:22.788Z,48.10
2018-06-04T00:48:22.969Z,45.41
2018-06-04T00:49:23.150Z,56.15
2018-06-04T00:50:23.323Z,44.68
2018-06-04T00:51:23.511Z,44.92
2018-06-04T00:52:23.687Z,45.17
2018-06-04T00:53:23.865Z,55.66
2018-06-04T00:54:24.048Z,45.41
2018-06-04T00:55:24.226Z,47.61
2018-06-04T00:56:24.412Z,53.47
2018-06-04T00:57:24.594Z,56.15
2018-06-04T00:58:24.775Z,45.90
2018-06-04T00:59:24.958Z,44.43
2018-06-04T01:00:25.139Z,47.36
2018-06-04T01:01:25.318Z,62.50
2018-06-04T01:02:25.496Z,50.78
2018-06-04T01:03:25.675Z,53.47
2018-06-04T01:04:25.857Z,46.88
2018-06-04T01:05:26.280Z,49.07
2018-06-04T01:06:26.219Z,50.54
2018-06-04T01:07:26.385Z,46.39
2018-06-04T01:08:26.569Z,47.85
2018-06-04T01:09:26.744Z,45.65
2018-06-04T01:10:26.926Z,44.92
2018-06-04T01:11:27.110Z,56.40
2018-06-04T01:12:27.289Z,46.88
2018-06-04T01:13:27.473Z,51.76
2018-06-04T01:14:27.642Z,47.85
2018-06-04T01:15:27.879Z,46.88
2018-06-04T01:16:28.020Z,60.79
2018-06-04T01:17:28.191Z,56.40
2018-06-04T01:18:28.377Z,44.92
2018-06-04T01:19:28.554Z,44.68
2018-06-04T01:20:28.739Z,44.43
2018-06-04T01:21:28.923Z,51.27
2018-06-04T01:22:29.112Z,49.56
2018-06-04T01:23:29.297Z,44.43
2018-06-04T01:24:29.464Z,46.88
2018-06-04T01:26:29.826Z,49.07
2018-06-04T01:27:30.000Z,44.68
2018-06-04T01:28:30.218Z,59.33
2018-06-04T01:29:30.368Z,52.00
2018-06-04T01:30:30.523Z,53.96
2018-06-04T01:31:30.708Z,44.92
2018-06-04T01:32:31.214Z,45.90
2018-06-04T01:33:31.070Z,45.41
2018-06-04T01:34:31.252Z,45.41
2018-06-04T01:35:31.431Z,55.18
2018-06-04T01:36:31.614Z,47.12
2018-06-04T01:37:31.795Z,56.64
2018-06-04T01:38:31.984Z,45.41
2018-06-04T01:39:32.163Z,55.91
2018-06-04T01:40:32.346Z,48.83
2018-06-04T01:41:32.528Z,49.07
2018-06-04T01:42:32.705Z,47.85
2018-06-04T01:43:32.892Z,49.07
2018-06-04T01:44:33.068Z,47.12
2018-06-04T01:45:33.248Z,53.71
2018-06-04T01:46:33.436Z,59.57
2018-06-04T01:47:33.617Z,46.14
2018-06-04T01:48:33.799Z,59.08
2018-06-04T01:49:33.985Z,45.65
2018-06-04T01:50:34.161Z,56.88
2018-06-04T01:51:34.342Z,46.88
2018-06-04T01:52:34.521Z,45.90
2018-06-04T01:53:34.705Z,46.88
2018-06-04T01:54:34.891Z,54.20
2018-06-04T01:55:35.069Z,45.90
2018-06-04T01:56:35.248Z,50.29
2018-06-04T01:57:35.422Z,47.61
2018-06-04T01:58:35.607Z,47.85
2018-06-04T02:00:35.959Z,71.53
2018-06-04T02:01:36.152Z,51.27
2018-06-04T02:02:36.326Z,54.93
2018-06-04T02:03:36.506Z,54.69
2018-06-04T02:04:36.690Z,56.40
2018-06-04T02:05:36.876Z,57.86
2018-06-04T02:06:37.385Z,58.11
2018-06-04T02:07:37.233Z,58.35
2018-06-04T02:08:37.420Z,56.40
2018-06-04T02:09:37.604Z,70.07
2018-06-04T02:10:37.783Z,73.00
2018-06-04T02:11:37.966Z,71.78
2018-06-04T02:12:38.149Z,70.56
2018-06-04T02:13:38.334Z,69.58
2018-06-04T02:14:38.514Z,70.80
2018-06-04T02:15:38.698Z,71.29
2018-06-04T02:16:38.875Z,71.53
2018-06-04T02:17:39.056Z,70.31
2018-06-04T02:18:39.237Z,69.58
2018-06-04T02:19:39.427Z,68.60
2018-06-04T02:20:39.608Z,66.65
2018-06-04T02:21:39.789Z,69.09
2018-06-04T02:22:39.968Z,67.14
2018-06-04T02:23:40.159Z,74.95
2018-06-04T02:24:47.972Z,66.65
2018-06-04T02:25:40.505Z,65.92
2018-06-04T02:26:40.691Z,67.14
2018-06-04T02:27:40.878Z,68.12
2018-06-04T02:28:41.062Z,66.89
2018-06-04T02:34:13.900Z,69.58
2018-06-04T02:35:21.693Z,58.11
2018-06-04T02:36:14.234Z,68.12
2018-06-04T02:37:14.425Z,63.72
2018-06-04T02:38:14.607Z,52.49
2018-06-04T02:39:14.774Z,50.29
2018-06-04T02:40:14.971Z,48.58
2018-06-04T02:41:15.143Z,48.58
2018-06-04T02:42:15.320Z,48.58
2018-06-04T02:43:15.502Z,50.05
2018-06-04T02:44:15.679Z,48.10
2018-06-04T02:45:15.862Z,49.32
2018-06-04T02:46:16.039Z,48.83
2018-06-04T02:47:23.867Z,55.66
2018-06-04T02:48:16.408Z,62.26
2018-06-04T02:49:16.597Z,54.44
2018-06-04T02:50:16.776Z,69.34
2018-06-04T02:51:16.953Z,57.37
2018-06-04T02:52:17.133Z,58.35
2018-06-04T02:53:17.315Z,59.81
2018-06-04T02:54:17.496Z,59.08
2018-06-04T02:55:17.673Z,57.62
2018-06-04T02:56:17.859Z,56.15
2018-06-04T02:57:18.038Z,55.66
2018-06-04T02:58:18.230Z,57.13
2018-06-04T02:59:18.402Z,56.40
2018-06-04T03:00:18.581Z,57.86
2018-06-04T03:01:18.768Z,59.57
2018-06-04T03:02:18.943Z,63.23
2018-06-04T03:03:19.122Z,55.66
2018-06-04T03:04:19.306Z,61.04
2018-06-04T03:05:19.487Z,68.12
2018-06-04T03:06:19.666Z,58.35
2018-06-04T03:07:19.864Z,60.79
2018-06-04T03:08:20.022Z,58.11
2018-06-04T03:09:20.203Z,61.04
2018-06-04T03:10:20.380Z,54.44
2018-06-04T03:11:20.563Z,55.42
2018-06-04T03:12:20.742Z,54.93
2018-06-04T03:13:20.918Z,54.93
2018-06-04T03:14:28.747Z,55.18
2018-06-04T03:15:21.288Z,55.18
2018-06-04T03:16:21.471Z,55.91
2018-06-04T03:17:29.291Z,57.37
2018-06-04T03:18:21.832Z,59.33
2018-06-04T03:19:22.017Z,56.88
2018-06-04T03:21:22.380Z,56.88
2018-06-04T03:22:22.548Z,58.35
2018-06-04T03:23:22.729Z,56.88
2018-06-04T03:24:22.903Z,52.25
2018-06-04T03:25:23.089Z,54.93
2018-06-04T03:26:30.903Z,59.33
2018-06-04T03:27:23.450Z,53.96
2018-06-04T03:28:31.261Z,61.28
2018-06-04T03:29:23.802Z,69.82
2018-06-04T03:30:23.979Z,63.23
2018-06-04T03:31:24.170Z,64.94
2018-06-04T03:32:24.346Z,63.96
2018-06-04T03:33:24.524Z,58.35
2018-06-04T03:34:24.700Z,64.45
2018-06-04T03:35:24.886Z,64.45
2018-06-04T03:36:25.059Z,61.52
2018-06-04T03:37:25.243Z,57.86
2018-06-04T03:38:25.422Z,59.81
2018-06-04T03:39:25.605Z,57.37
2018-06-04T03:40:25.788Z,57.13
2018-06-04T03:41:25.968Z,51.03
2018-06-04T03:42:26.158Z,64.70
2018-06-04T03:43:26.336Z,73.24
2018-06-04T03:44:26.532Z,72.51
2018-06-04T03:45:26.672Z,74.71
2018-06-04T03:46:26.851Z,69.09
2018-06-04T03:47:27.026Z,56.64
2018-06-04T03:48:27.189Z,59.57
2018-06-04T03:49:27.353Z,62.01
2018-06-04T03:50:27.521Z,61.04
2018-06-04T03:51:27.965Z,59.57
2018-06-04T03:52:27.894Z,65.19
2018-06-04T03:53:28.024Z,69.34
2018-06-04T03:54:28.197Z,64.45
2018-06-04T03:55:28.354Z,67.63
2018-06-04T03:56:28.515Z,53.22
2018-06-04T03:57:28.706Z,56.88
2018-06-04T03:58:28.875Z,58.59
2018-06-04T03:59:29.064Z,56.15
2018-06-04T04:00:29.214Z,67.38
2018-06-04T04:01:29.442Z,49.80
2018-06-04T04:02:29.570Z,57.62
2018-06-04T04:03:29.750Z,55.66
2018-06-04T04:04:29.955Z,54.20
2018-06-04T04:05:30.094Z,70.31
2018-06-04T04:06:30.259Z,56.40
2018-06-04T04:07:30.423Z,61.52
2018-06-04T04:08:30.613Z,59.08
2018-06-04T04:09:30.788Z,66.16
2018-06-04T04:10:30.966Z,62.50
2018-06-04T04:11:31.150Z,59.33
2018-06-04T04:12:31.319Z,67.14
2018-06-04T04:13:31.495Z,62.50
2018-06-04T04:14:31.671Z,68.12
2018-06-04T04:15:31.845Z,72.51
2018-06-04T04:16:32.017Z,74.46
2018-06-04T04:17:32.180Z,71.78
2018-06-04T04:18:32.350Z,56.40
2018-06-04T04:19:32.547Z,51.76
2018-06-04T04:20:32.751Z,52.25
2018-06-04T04:21:32.924Z,54.93
2018-06-04T04:22:33.097Z,63.48
2018-06-04T04:23:33.306Z,59.33
2018-06-04T04:24:33.493Z,53.22
2018-06-04T04:25:33.671Z,58.84
2018-06-04T04:26:33.889Z,59.81
2018-06-04T04:27:34.042Z,58.84
2018-06-04T04:28:34.220Z,65.43
2018-06-04T04:29:34.410Z,58.11
2018-06-04T04:30:34.579Z,61.77
2018-06-04T04:31:34.768Z,64.70
2018-06-04T04:32:34.965Z,61.04
2018-06-04T04:33:35.105Z,62.01
2018-06-04T04:34:35.269Z,70.07
2018-06-04T04:35:35.420Z,54.44
2018-06-04T04:36:35.591Z,64.45
2018-06-04T04:37:35.789Z,64.94
2018-06-04T04:38:35.948Z,71.29
2018-06-04T04:39:36.128Z,56.40
2018-06-04T04:40:36.293Z,58.84
2018-06-04T04:41:36.468Z,56.40
2018-06-04T04:42:36.649Z,66.16
2018-06-04T04:43:36.821Z,64.94
2018-06-04T04:44:37.001Z,65.19
2018-06-04T04:45:37.179Z,73.73
2018-06-04T04:46:37.433Z,72.75
2018-06-04T04:47:37.538Z,66.41
2018-06-04T04:48:37.715Z,66.65
2018-06-04T04:49:37.920Z,55.91
2018-06-04T04:50:38.081Z,56.15
2018-06-04T04:51:38.261Z,72.02
2018-06-04T04:52:38.423Z,73.49
2018-06-04T04:53:38.605Z,55.66
2018-06-04T04:54:38.778Z,56.15
2018-06-04T04:55:38.939Z,55.66
2018-06-04T04:56:39.113Z,56.64
2018-06-04T04:57:39.284Z,55.91
2018-06-04T04:58:39.453Z,60.55
2018-06-04T04:59:39.705Z,66.65
2018-06-04T05:00:39.818Z,65.19
2018-06-04T05:01:39.980Z,79.59
2018-06-04T05:02:40.154Z,80.08
2018-06-04T05:03:40.317Z,80.81
2018-06-04T05:04:40.487Z,80.08
2018-06-04T05:05:40.705Z,80.08
2018-06-04T05:06:40.851Z,70.31
2018-06-04T05:07:41.027Z,55.66
2018-06-04T05:08:41.206Z,57.37
2018-06-04T05:09:41.413Z,59.33
2018-06-04T05:10:41.555Z,54.69
2018-06-04T05:12:41.918Z,52.00
2018-06-04T05:13:42.096Z,54.93
2018-06-04T05:14:42.269Z,61.04
2018-06-04T05:15:42.454Z,64.21
2018-06-04T05:16:42.602Z,58.35
2018-06-04T05:17:42.770Z,56.40
2018-06-04T05:18:42.953Z,60.79
2018-06-04T05:19:43.132Z,57.13
2018-06-04T05:20:43.317Z,60.79
2018-06-04T05:22:43.688Z,69.82
2018-06-04T05:23:43.875Z,72.27
2018-06-04T05:24:44.060Z,64.21
2018-06-04T05:25:44.252Z,54.20
2018-06-04T05:26:44.411Z,74.22
2018-06-04T05:28:44.760Z,58.84
2018-06-04T05:29:44.950Z,63.96
2018-06-04T05:30:45.120Z,71.29
2018-06-04T05:31:45.315Z,65.19
2018-06-04T05:32:45.472Z,62.50
2018-06-04T05:33:45.644Z,71.78
2018-06-04T05:34:45.827Z,67.38
2018-06-04T05:35:46.003Z,58.84
2018-06-04T05:36:46.174Z,62.99
2018-06-04T05:37:46.378Z,67.63
2018-06-04T05:38:46.512Z,68.12
2018-06-04T05:39:46.690Z,59.57
2018-06-04T05:40:46.878Z,54.44
2018-06-04T05:41:47.068Z,66.41
2018-06-04T05:42:47.258Z,61.04
2018-06-04T05:43:47.440Z,66.16
2018-06-04T05:44:47.636Z,64.94
2018-06-04T05:45:47.840Z,66.41
2018-06-04T05:46:47.973Z,68.12
2018-06-04T05:47:48.168Z,75.93
2018-06-04T05:48:48.348Z,64.70
2018-06-04T05:49:48.545Z,59.57
2018-06-04T05:50:48.730Z,67.38
2018-06-04T05:51:48.922Z,66.65
2018-06-04T05:52:49.116Z,61.04
2018-06-04T05:53:49.295Z,78.86
2018-06-04T05:54:49.489Z,69.09
2018-06-04T05:56:49.879Z,67.87
2018-06-04T05:57:50.070Z,71.29
2018-06-04T05:58:50.264Z,69.09
2018-06-04T05:59:50.447Z,70.56
2018-06-04T06:00:50.649Z,74.22
2018-06-04T06:01:50.878Z,76.42
2018-06-04T06:02:51.024Z,77.39
2018-06-04T06:03:51.213Z,78.86
2018-06-04T06:04:51.407Z,84.72
2018-06-04T06:05:51.602Z,71.78
2018-06-04T06:06:51.831Z,67.87
2018-06-04T06:07:51.968Z,86.91
2018-06-04T06:08:52.163Z,88.38
2018-06-04T06:09:52.359Z,68.85
2018-06-04T06:10:52.549Z,69.82
2018-06-04T06:11:52.742Z,80.81
2018-06-04T06:12:52.933Z,81.79
2018-06-04T06:13:53.124Z,74.95
2018-06-04T06:14:53.313Z,68.85
2018-06-04T06:15:53.508Z,77.88
2018-06-04T06:16:53.724Z,74.71
2018-06-04T06:17:53.884Z,69.82
2018-06-04T06:18:54.075Z,64.94
2018-06-04T06:19:54.264Z,65.19
2018-06-04T06:20:54.457Z,67.87
2018-06-04T06:21:54.646Z,62.99
2018-06-04T06:22:54.842Z,61.04
2018-06-04T06:23:55.038Z,59.33
2018-06-04T06:24:55.221Z,70.80
2018-06-04T06:25:55.416Z,77.15
2018-06-04T06:26:55.609Z,74.46
2018-06-04T06:27:55.809Z,63.72
2018-06-04T06:28:55.997Z,72.75
2018-06-04T06:29:56.184Z,71.29
2018-06-04T06:30:56.386Z,67.87
2018-06-04T06:31:56.559Z,61.52
2018-06-04T06:32:56.762Z,61.28
2018-06-04T06:33:56.936Z,66.41
2018-06-04T06:34:57.123Z,59.81
2018-06-04T06:35:57.316Z,75.68
2018-06-04T06:36:57.507Z,71.29
2018-06-04T06:37:57.698Z,62.50
2018-06-04T06:38:57.882Z,68.60
2018-06-04T06:39:58.076Z,73.97
2018-06-04T06:40:58.266Z,72.75
2018-06-04T06:41:58.465Z,60.79
2018-06-04T06:42:58.653Z,56.64
2018-06-04T06:43:58.846Z,73.49
2018-06-04T06:44:59.037Z,75.44
2018-06-04T06:45:59.234Z,68.60
2018-06-04T06:46:59.435Z,65.19
2018-06-04T06:47:59.676Z,71.29
2018-06-04T06:49:00.093Z,59.57
2018-06-04T06:50:00.090Z,69.58
2018-06-04T06:51:00.176Z,70.56
2018-06-04T06:52:00.366Z,58.35
2018-06-04T06:53:00.556Z,73.73
2018-06-04T06:54:00.751Z,71.78
2018-06-04T06:55:00.930Z,63.96
2018-06-04T06:56:01.131Z,81.30
2018-06-04T06:57:01.309Z,72.75
2018-06-04T06:58:01.498Z,70.31
2018-06-04T06:59:01.705Z,64.21
2018-06-04T07:00:01.878Z,64.94
2018-06-04T07:01:02.067Z,66.41
2018-06-04T07:02:02.353Z,63.48
2018-06-04T07:03:02.451Z,66.89
2018-06-04T07:04:02.640Z,63.72
2018-06-04T07:05:02.828Z,72.27
2018-06-04T07:06:03.028Z,63.48
2018-06-04T07:07:03.221Z,66.16
2018-06-04T07:08:03.407Z,67.87
2018-06-04T07:09:03.596Z,59.57
2018-06-04T07:10:04.049Z,60.30
2018-06-04T07:11:03.989Z,66.65
2018-06-04T07:12:04.172Z,71.29
2018-06-04T07:13:04.375Z,70.80
2018-06-04T07:14:04.567Z,61.04
2018-06-04T07:15:04.728Z,70.80
2018-06-04T07:16:04.916Z,68.85
2018-06-04T07:17:05.097Z,72.02
2018-06-04T07:18:05.289Z,69.34
2018-06-04T07:19:05.478Z,69.58
2018-06-04T07:21:05.851Z,73.49
2018-06-04T07:22:06.050Z,69.09
2018-06-04T07:23:06.254Z,61.04
2018-06-04T07:24:06.423Z,60.79
2018-06-04T07:25:06.620Z,68.12
2018-06-04T07:26:06.805Z,67.63
2018-06-04T07:27:06.996Z,71.29
2018-06-04T07:28:07.174Z,70.07
2018-06-04T07:29:07.388Z,71.04
2018-06-04T07:30:07.567Z,72.51
2018-06-04T07:31:07.733Z,73.24
2018-06-04T07:32:08.189Z,70.56
2018-06-04T07:33:08.185Z,67.63
2018-06-04T07:34:08.354Z,73.49
2018-06-04T07:35:08.534Z,67.63
2018-06-04T07:36:08.727Z,67.38
2018-06-04T07:37:08.921Z,58.11
2018-06-04T07:38:09.345Z,67.14
2018-06-04T07:39:09.288Z,62.99
2018-06-04T07:40:09.463Z,68.85
2018-06-04T07:41:09.669Z,67.63
2018-06-04T07:42:09.809Z,61.77
2018-06-04T07:43:09.997Z,65.92
2018-06-04T07:44:10.193Z,75.44
2018-06-04T07:45:10.371Z,72.51
2018-06-04T07:46:10.559Z,66.16
2018-06-04T07:47:10.776Z,64.21
2018-06-04T07:48:10.929Z,65.43
2018-06-04T07:49:11.117Z,66.89
2018-06-04T07:50:11.357Z,70.80
2018-06-04T07:51:11.691Z,68.60
2018-06-04T07:52:11.791Z,69.58
2018-06-04T07:53:11.947Z,69.34
2018-06-04T07:54:12.135Z,65.92
2018-06-04T07:55:12.320Z,67.63
2018-06-04T07:56:12.639Z,68.36
2018-06-04T07:57:12.839Z,59.57
2018-06-04T07:58:12.950Z,66.16
2018-06-04T07:59:13.229Z,71.29
2018-06-04T08:00:13.396Z,70.31
2018-06-04T08:01:13.627Z,66.41
2018-06-04T08:02:13.792Z,64.94
2018-06-04T08:03:14.040Z,62.50
2018-06-04T08:04:14.229Z,69.58
2018-06-04T08:05:14.414Z,65.19
2018-06-04T08:06:14.612Z,62.50
2018-06-04T08:07:14.777Z,62.74
2018-06-04T08:08:14.964Z,62.99
2018-06-04T08:09:15.134Z,63.48
2018-06-04T08:10:15.388Z,61.77
2018-06-04T08:11:15.542Z,71.04
2018-06-04T08:12:15.704Z,63.48
2018-06-04T08:13:15.889Z,70.31
2018-06-04T08:14:16.108Z,62.50
2018-06-04T08:15:16.285Z,65.92
2018-06-04T08:16:16.508Z,61.04
2018-06-04T08:17:16.685Z,69.82
2018-06-04T08:18:17.068Z,67.63
2018-06-04T08:19:16.991Z,58.59
2018-06-04T08:20:17.166Z,67.63
2018-06-04T08:21:17.344Z,62.26
2018-06-04T08:22:17.537Z,63.96
2018-06-04T08:23:17.710Z,72.51
2018-06-04T08:24:17.892Z,67.63
2018-06-04T08:25:18.041Z,73.49
2018-06-04T08:26:18.219Z,72.75
2018-06-04T08:27:18.391Z,59.81
2018-06-04T08:28:18.566Z,62.26
2018-06-04T08:29:18.794Z,60.06
2018-06-04T08:30:18.940Z,64.70
2018-06-04T08:31:19.112Z,62.50
2018-06-04T08:32:19.309Z,64.70
2018-06-04T08:33:19.478Z,64.21
2018-06-04T08:34:19.668Z,62.99
2018-06-04T08:35:19.856Z,61.04
2018-06-04T08:36:20.016Z,68.36
2018-06-04T08:37:20.204Z,70.07
2018-06-04T08:38:20.394Z,74.95
2018-06-04T08:39:20.590Z,75.68
2018-06-04T08:40:20.830Z,70.56
2018-06-04T08:41:20.951Z,74.22
2018-06-04T08:42:21.120Z,66.65
2018-06-04T08:43:21.308Z,62.99
2018-06-04T08:44:21.499Z,71.53
2018-06-04T08:45:21.693Z,64.45
2018-06-04T08:46:21.851Z,65.19
2018-06-04T08:47:22.025Z,62.01
2018-06-04T08:48:22.199Z,71.53
2018-06-04T08:49:22.395Z,63.72
2018-06-04T08:50:22.556Z,75.20
2018-06-04T08:51:22.746Z,67.14
2018-06-04T08:52:22.955Z,82.52
2018-06-04T08:53:23.100Z,66.89
2018-06-04T08:54:23.273Z,87.16
2018-06-04T08:55:23.441Z,67.14
2018-06-04T08:56:23.666Z,66.89
2018-06-04T08:57:23.828Z,64.70
2018-06-04T08:58:24.001Z,70.80
2018-06-04T08:59:24.169Z,73.49
2018-06-04T09:00:24.365Z,64.21
2018-06-04T09:01:24.527Z,73.73
2018-06-04T09:02:24.693Z,64.45
2018-06-04T09:03:24.900Z,74.46
2018-06-04T09:04:25.103Z,61.52
2018-06-04T09:05:25.301Z,59.81
2018-06-04T09:06:25.480Z,58.84
2018-06-04T09:07:25.647Z,60.55
2018-06-04T09:08:25.840Z,63.48
2018-06-04T09:09:26.007Z,64.70
2018-06-04T09:10:26.184Z,62.26
2018-06-04T09:11:26.384Z,64.94
2018-06-04T09:12:26.547Z,70.07
2018-06-04T09:13:26.735Z,65.92
2018-06-04T09:14:26.922Z,61.52
2018-06-04T09:15:27.097Z,65.92
2018-06-04T09:16:27.285Z,70.31
2018-06-04T09:17:27.455Z,62.26
2018-06-04T09:18:27.649Z,73.49
2018-06-04T09:19:27.824Z,78.13
2018-06-04T09:20:28.010Z,72.02
2018-06-04T09:21:28.193Z,65.92
2018-06-04T09:22:28.344Z,59.33
2018-06-04T09:23:28.539Z,72.75
2018-06-04T09:24:28.716Z,66.89
2018-06-04T09:25:28.909Z,67.63
2018-06-04T09:26:29.085Z,69.82
2018-06-04T09:27:29.274Z,65.19
2018-06-04T09:29:29.641Z,65.43
2018-06-04T09:30:29.822Z,68.12
2018-06-04T09:31:30.163Z,70.56
2018-06-04T09:32:30.217Z,68.36
2018-06-04T09:33:30.389Z,64.70
2018-06-04T09:34:30.593Z,65.67
2018-06-04T09:35:30.775Z,65.43
2018-06-04T09:36:30.985Z,64.45
2018-06-04T09:37:31.169Z,79.83
2018-06-04T09:38:31.385Z,62.50
2018-06-04T09:39:31.531Z,73.00
2018-06-04T09:40:31.708Z,65.19
2018-06-04T09:41:31.888Z,62.50
2018-06-04T09:42:32.070Z,63.72
2018-06-04T09:43:32.257Z,67.38
2018-06-04T09:44:32.457Z,68.12
2018-06-04T09:45:32.635Z,66.65
2018-06-04T09:46:32.791Z,64.94
2018-06-04T09:47:33.061Z,61.77
2018-06-04T09:48:33.154Z,65.67
2018-06-04T09:49:33.680Z,65.92
2018-06-04T09:50:33.533Z,67.87
2018-06-04T09:51:33.722Z,70.80
2018-06-04T09:52:33.914Z,63.48
2018-06-04T09:53:34.077Z,62.26
2018-06-04T09:54:34.272Z,65.19
2018-06-04T09:55:34.456Z,67.63
2018-06-04T09:56:34.636Z,68.85
2018-06-04T09:57:34.828Z,61.28
2018-06-04T09:58:35.008Z,63.72
2018-06-04T09:59:35.198Z,66.41
2018-06-04T10:00:35.371Z,63.96
2018-06-04T10:01:35.549Z,78.86
2018-06-04T10:02:35.734Z,79.59
2018-06-04T10:03:35.922Z,80.32
2018-06-04T10:04:36.160Z,79.83
2018-06-04T10:05:36.292Z,80.32
2018-06-04T10:06:36.483Z,80.81
2018-06-04T10:07:36.670Z,68.12
2018-06-04T10:08:36.855Z,61.52
2018-06-04T10:09:37.034Z,66.16
2018-06-04T10:10:37.216Z,61.52
2018-06-04T10:11:37.395Z,62.74
2018-06-04T10:12:37.580Z,69.82
2018-06-04T10:13:38.043Z,64.21
2018-06-04T10:14:37.949Z,63.48
2018-06-04T10:15:38.170Z,75.44
2018-06-04T10:16:38.319Z,70.80
2018-06-04T10:17:38.524Z,70.80
2018-06-04T10:18:38.704Z,69.58
2018-06-04T10:19:38.894Z,68.85
2018-06-04T10:20:39.054Z,59.08
2018-06-04T10:21:39.244Z,62.01
2018-06-04T10:22:39.430Z,62.50
2018-06-04T10:23:39.616Z,64.21
2018-06-04T10:24:39.782Z,62.01
2018-06-04T10:25:39.958Z,71.29
2018-06-04T10:26:40.155Z,60.06
2018-06-04T10:27:40.349Z,65.19
2018-06-04T10:28:40.568Z,62.01
2018-06-04T10:29:40.714Z,60.30
2018-06-04T10:30:40.895Z,66.89
2018-06-04T10:31:41.084Z,62.99
2018-06-04T10:32:41.272Z,61.77
2018-06-04T10:33:41.524Z,61.52
2018-06-04T10:34:41.628Z,60.30
2018-06-04T10:35:41.804Z,73.24
2018-06-04T10:36:42.026Z,65.67
2018-06-04T10:37:42.151Z,65.67
2018-06-04T10:38:42.361Z,67.63
2018-06-04T10:39:42.523Z,64.21
2018-06-04T10:40:42.701Z,60.30
2018-06-04T10:41:42.947Z,63.72
2018-06-04T10:42:43.087Z,63.48
2018-06-04T10:43:43.323Z,63.48
2018-06-04T10:44:43.810Z,66.16
2018-06-04T10:45:43.783Z,65.19
2018-06-04T10:46:43.859Z,59.81
2018-06-04T10:47:44.070Z,61.77
2018-06-04T10:48:44.274Z,69.34
2018-06-04T10:49:44.445Z,72.02
2018-06-04T10:50:44.640Z,70.31
2018-06-04T10:51:44.827Z,66.16
2018-06-04T10:52:45.026Z,60.79
2018-06-04T10:53:45.193Z,67.38
2018-06-04T10:54:45.391Z,63.23
2018-06-04T10:55:45.578Z,59.57
2018-06-04T10:56:45.751Z,56.40
2018-06-04T10:57:45.939Z,60.30
2018-06-04T10:58:46.091Z,69.09
2018-06-04T10:59:46.287Z,62.74
2018-06-04T11:00:46.442Z,64.94
2018-06-04T11:01:46.660Z,72.51
2018-06-04T11:02:46.835Z,66.16
2018-06-04T11:03:47.004Z,60.30
2018-06-04T11:04:47.268Z,58.59
2018-06-04T11:05:47.386Z,64.70
2018-06-04T11:06:47.588Z,62.50
2018-06-04T11:07:47.743Z,62.74
2018-06-04T11:08:47.953Z,67.38
2018-06-04T11:09:48.148Z,66.65
2018-06-04T11:10:48.307Z,64.21
2018-06-04T11:11:48.485Z,65.19
2018-06-04T11:12:48.682Z,64.94
2018-06-04T11:13:48.851Z,61.52
2018-06-04T11:14:49.053Z,60.30
2018-06-04T11:15:49.210Z,65.19
2018-06-04T11:16:49.389Z,63.96
2018-06-04T11:17:49.575Z,63.96
2018-06-04T11:18:49.757Z,58.84
2018-06-04T11:19:49.910Z,65.43
2018-06-04T11:20:50.086Z,63.48
2018-06-04T11:21:50.277Z,81.30
2018-06-04T11:22:50.441Z,59.57
2018-06-04T11:23:50.643Z,73.24
2018-06-04T11:24:50.819Z,58.11
2018-06-04T11:25:51.003Z,59.57
2018-06-04T11:26:51.179Z,59.81
2018-06-04T11:27:51.362Z,63.72
2018-06-04T11:28:51.554Z,68.36
2018-06-04T11:29:51.734Z,76.17
2018-06-04T11:30:51.925Z,82.28
2018-06-04T11:31:52.130Z,74.22
2018-06-04T11:32:52.285Z,73.00
2018-06-04T11:33:52.462Z,64.21
2018-06-04T11:34:52.662Z,73.49
2018-06-04T11:35:52.861Z,63.23
2018-06-04T11:36:53.041Z,73.97
2018-06-04T11:37:53.216Z,70.56
2018-06-04T11:38:53.407Z,69.82
2018-06-04T11:39:53.594Z,66.65
2018-06-04T11:40:53.794Z,64.21
2018-06-04T11:41:53.984Z,64.70
2018-06-04T11:42:54.160Z,64.70
2018-06-04T11:43:54.454Z,66.89
2018-06-04T11:44:54.535Z,62.74
2018-06-04T11:45:54.699Z,64.45
2018-06-04T11:46:54.912Z,62.26
2018-06-04T11:47:55.127Z,59.08
2018-06-04T11:48:55.270Z,59.08
2018-06-04T11:49:55.462Z,67.38
2018-06-04T11:50:55.679Z,65.19
2018-06-04T11:51:55.792Z,65.43
2018-06-04T11:52:55.991Z,65.67
2018-06-04T11:53:56.174Z,66.65
2018-06-04T11:54:56.364Z,66.65
2018-06-04T11:55:56.568Z,62.99
2018-06-04T11:56:56.985Z,60.55
2018-06-04T11:57:56.937Z,71.53
2018-06-04T11:58:57.114Z,64.21
2018-06-04T11:59:57.288Z,69.34
2018-06-04T12:00:57.488Z,71.78
2018-06-04T12:01:57.672Z,70.80
2018-06-04T12:02:57.843Z,62.26
2018-06-04T12:03:58.026Z,63.96
2018-06-04T12:04:58.215Z,68.85
2018-06-04T12:05:58.437Z,65.19
2018-06-04T12:06:58.574Z,65.43
2018-06-04T12:07:58.771Z,61.28
2018-06-04T12:08:58.934Z,61.52
2018-06-04T12:09:59.112Z,59.33
2018-06-04T12:10:59.304Z,60.30
2018-06-04T12:11:59.482Z,67.38
2018-06-04T12:12:59.653Z,67.14
2018-06-04T12:13:59.805Z,65.92
2018-06-04T12:15:00.014Z,68.36
2018-06-04T12:16:00.206Z,62.74
2018-06-04T12:17:00.377Z,61.28
2018-06-04T12:18:00.547Z,62.50
2018-06-04T12:19:00.735Z,61.77
2018-06-04T12:20:00.916Z,76.17
2018-06-04T12:21:01.108Z,62.50
2018-06-04T12:22:01.287Z,64.45
2018-06-04T12:23:01.487Z,70.07
2018-06-04T12:24:01.672Z,68.85
2018-06-04T12:25:01.864Z,78.61
2018-06-04T12:26:02.054Z,66.16
2018-06-04T12:27:02.249Z,63.96
2018-06-04T12:28:02.430Z,62.99
2018-06-04T12:29:02.588Z,73.73
2018-06-04T12:30:02.777Z,61.77
2018-06-04T12:31:02.920Z,63.23
2018-06-04T12:32:03.125Z,62.01
2018-06-04T12:33:03.323Z,64.70
2018-06-04T12:34:03.508Z,59.08
2018-06-04T12:35:03.667Z,57.13
2018-06-04T12:36:03.829Z,59.08
2018-06-04T12:37:04.010Z,59.57
2018-06-04T12:38:04.461Z,67.87
2018-06-04T12:39:04.424Z,70.80
2018-06-04T12:40:04.614Z,65.19
2018-06-04T12:41:04.780Z,64.94
2018-06-04T12:42:04.950Z,60.79
2018-06-04T12:43:05.151Z,65.67
2018-06-04T12:44:05.316Z,68.85
2018-06-04T12:45:05.493Z,63.23
2018-06-04T12:46:05.753Z,61.04
2018-06-04T12:47:05.852Z,68.36
2018-06-04T12:49:06.205Z,69.09
2018-06-04T12:50:06.381Z,66.41
2018-06-04T12:51:06.569Z,64.94
2018-06-04T12:52:06.747Z,64.70
2018-06-04T12:53:06.928Z,66.89
2018-06-04T12:54:07.108Z,60.06
2018-06-04T12:55:07.596Z,60.06
2018-06-04T12:56:07.524Z,58.84
2018-06-04T12:57:07.671Z,72.27
2018-06-04T12:59:08.003Z,59.08
2018-06-04T13:00:08.175Z,63.72
2018-06-04T13:01:08.402Z,65.67
2018-06-04T13:02:08.528Z,65.43
2018-06-04T13:03:08.704Z,71.78
2018-06-04T13:04:08.873Z,64.21
2018-06-04T13:05:09.063Z,62.74
2018-06-04T13:06:09.229Z,58.84
2018-06-04T13:07:09.405Z,61.77
2018-06-04T13:08:09.594Z,57.37
2018-06-04T13:09:09.752Z,57.62
2018-06-04T13:10:09.936Z,61.04
2018-06-04T13:11:10.146Z,61.77